createdAt,value
2023-05-14T00:00:58.587Z,15.01
2023-05-14T00:03:26.337Z,14.76
2023-05-14T00:05:53.969Z,14.71
2023-05-14T00:08:21.599Z,14.53
2023-05-14T00:10:50.522Z,14.95
2023-05-14T00:13:19.284Z,14.90
2023-05-14T00:15:46.857Z,14.33
2023-05-14T00:18:14.729Z,13.97
2023-05-14T00:20:42.962Z,13.83
2023-05-14T00:23:11.706Z,13.69
2023-05-14T00:25:39.284Z,13.55
2023-05-14T00:28:08.260Z,13.41
2023-05-14T00:30:35.851Z,13.41
2023-05-14T00:33:03.907Z,13.62
2023-05-14T00:35:31.891Z,13.49
2023-05-14T00:37:59.507Z,13.55
2023-05-14T00:40:27.948Z,13.60
2023-05-14T00:42:56.912Z,13.74
2023-05-14T00:45:26.455Z,13.56
2023-05-14T00:47:54.903Z,13.46
2023-05-14T00:50:23.394Z,13.39
2023-05-14T00:52:51.270Z,13.28
2023-05-14T00:55:21.127Z,13.15
2023-05-14T00:57:50.646Z,13.13
2023-05-14T01:00:18.772Z,13.20
2023-05-14T01:02:48.464Z,13.19
2023-05-14T01:05:16.582Z,13.83
2023-05-14T01:07:57.476Z,13.59
2023-05-14T01:10:32.462Z,13.35
2023-05-14T01:13:08.310Z,13.22
2023-05-14T01:15:39.265Z,13.25
2023-05-14T01:18:11.790Z,13.29
2023-05-14T01:20:40.499Z,13.33
2023-05-14T01:23:09.436Z,13.27
2023-05-14T01:25:37.363Z,13.38
2023-05-14T01:28:11.803Z,13.55
2023-05-14T01:30:46.234Z,13.46
2023-05-14T01:33:17.956Z,13.46
2023-05-14T01:35:48.463Z,13.38
2023-05-14T01:38:19.928Z,13.29
2023-05-14T01:40:49.558Z,13.30
2023-05-14T01:43:19.372Z,13.35
2023-05-14T01:45:47.196Z,13.16
2023-05-14T01:48:15.046Z,13.29
2023-05-14T01:50:42.679Z,13.32
2023-05-14T01:53:10.308Z,13.42
2023-05-14T01:55:40.926Z,13.28
2023-05-14T01:58:08.503Z,13.13
2023-05-14T02:00:36.178Z,13.02
2023-05-14T02:03:04.002Z,12.87
2023-05-14T02:05:31.652Z,12.87
2023-05-14T02:07:59.373Z,12.87
2023-05-14T02:10:28.341Z,13.17
2023-05-14T02:12:58.768Z,13.17
2023-05-14T02:15:26.308Z,13.30
2023-05-14T02:17:53.933Z,13.66
2023-05-14T02:20:23.374Z,13.66
2023-05-14T02:22:51.478Z,13.81
2023-05-14T02:25:19.220Z,13.72
2023-05-14T02:27:47.591Z,14.35
2023-05-14T02:30:18.290Z,14.92
2023-05-14T02:32:46.948Z,14.33
2023-05-14T02:35:14.618Z,15.01
2023-05-14T02:37:42.460Z,14.88
2023-05-14T02:40:13.549Z,15.01
2023-05-14T02:42:43.553Z,14.94
2023-05-14T02:45:11.565Z,15.17
2023-05-14T02:47:40.428Z,15.51
2023-05-14T02:50:09.213Z,15.69
2023-05-14T02:52:37.065Z,15.26
2023-05-14T02:55:06.505Z,15.16
2023-05-14T02:57:34.053Z,13.86
2023-05-14T03:00:01.718Z,13.54
2023-05-14T03:02:29.743Z,13.21
2023-05-14T03:04:59.204Z,13.86
2023-05-14T03:07:26.906Z,13.22
2023-05-14T03:09:54.654Z,13.20
2023-05-14T03:12:22.290Z,13.70
2023-05-14T03:14:49.984Z,14.41
2023-05-14T03:17:17.580Z,14.61
2023-05-14T03:19:45.185Z,14.27
2023-05-14T03:22:14.229Z,14.01
2023-05-14T03:24:44.149Z,14.60
2023-05-14T03:27:11.985Z,14.88
2023-05-14T03:29:42.234Z,15.02
2023-05-14T03:32:09.942Z,15.01
2023-05-14T03:34:37.696Z,13.90
2023-05-14T03:37:05.476Z,13.82
2023-05-14T03:39:35.721Z,13.78
2023-05-14T03:42:03.722Z,13.70
2023-05-14T03:44:31.390Z,14.27
2023-05-14T03:46:58.994Z,14.09
2023-05-14T03:49:26.800Z,13.51
2023-05-14T03:51:54.404Z,13.13
2023-05-14T03:54:22.055Z,13.63
2023-05-14T03:56:51.315Z,13.96
2023-05-14T03:59:19.228Z,14.04
2023-05-14T04:01:46.823Z,14.27
2023-05-14T04:04:14.483Z,14.63
2023-05-14T04:06:42.348Z,15.09
2023-05-14T04:09:10.149Z,15.36
2023-05-14T04:11:38.323Z,15.42
2023-05-14T04:14:08.414Z,15.34
2023-05-14T04:16:35.985Z,15.27
2023-05-14T04:19:04.225Z,15.27
2023-05-14T04:21:31.928Z,15.51
2023-05-14T04:23:59.518Z,15.53
2023-05-14T04:26:27.280Z,15.68
2023-05-14T04:28:54.927Z,15.66
2023-05-14T04:31:24.131Z,15.67
2023-05-14T04:33:51.743Z,15.72
2023-05-14T04:36:19.333Z,15.34
2023-05-14T04:38:47.302Z,15.24
2023-05-14T04:41:14.883Z,14.70
2023-05-14T04:43:42.491Z,15.18
2023-05-14T04:46:10.111Z,15.44
2023-05-14T04:48:39.027Z,14.79
2023-05-14T04:51:07.259Z,13.80
2023-05-14T04:53:34.914Z,14.74
2023-05-14T04:56:02.730Z,13.50
2023-05-14T04:58:34.600Z,13.39
2023-05-14T05:01:04.413Z,13.03
2023-05-14T05:03:32.245Z,13.17
2023-05-14T05:06:01.425Z,13.66
2023-05-14T05:08:29.034Z,13.98
2023-05-14T05:10:58.962Z,13.67
2023-05-14T05:13:28.381Z,14.14
2023-05-14T05:15:56.000Z,14.02
2023-05-14T05:18:23.890Z,14.00
2023-05-14T05:20:51.631Z,13.90
2023-05-14T05:23:20.591Z,13.85
2023-05-14T05:25:48.771Z,13.62
2023-05-14T05:28:16.726Z,13.70
2023-05-14T05:30:45.155Z,14.22
2023-05-14T05:33:12.923Z,14.72
2023-05-14T05:35:42.806Z,14.89
2023-05-14T05:38:10.414Z,15.35
2023-05-14T05:40:39.662Z,15.42
2023-05-14T05:43:07.308Z,15.21
2023-05-14T05:45:37.248Z,15.42
2023-05-14T05:48:05.419Z,16.17
2023-05-14T05:50:33.305Z,16.44
2023-05-14T05:53:00.945Z,16.53
2023-05-14T05:55:29.425Z,16.48
2023-05-14T05:57:58.323Z,16.12
2023-05-14T06:00:26.039Z,15.62
2023-05-14T06:02:53.983Z,15.54
2023-05-14T06:05:21.655Z,14.71
2023-05-14T06:07:49.363Z,15.21
2023-05-14T06:10:17.074Z,15.11
2023-05-14T06:12:44.704Z,15.46
2023-05-14T06:15:14.456Z,15.10
2023-05-14T06:17:42.136Z,15.57
2023-05-14T06:20:10.906Z,15.78
2023-05-14T06:22:39.574Z,15.67
2023-05-14T06:25:08.189Z,15.50
2023-05-14T06:27:36.306Z,15.67
2023-05-14T06:30:06.190Z,15.78
2023-05-14T06:32:36.837Z,15.10
2023-05-14T06:35:05.344Z,15.81
2023-05-14T06:37:35.531Z,15.37
2023-05-14T06:40:07.805Z,14.76
2023-05-14T06:42:35.391Z,14.04
2023-05-14T06:45:03.446Z,13.86
2023-05-14T06:47:32.351Z,14.67
2023-05-14T06:50:04.578Z,13.80
2023-05-14T06:52:32.220Z,14.05
2023-05-14T06:55:00.177Z,14.11
2023-05-14T06:57:27.905Z,13.76
2023-05-14T06:59:55.567Z,14.03
2023-05-14T07:02:23.300Z,13.46
2023-05-14T07:04:50.900Z,13.49
2023-05-14T07:07:19.955Z,13.93
2023-05-14T07:09:47.725Z,14.53
2023-05-14T07:12:16.419Z,14.65
2023-05-14T07:14:46.181Z,14.63
2023-05-14T07:17:14.983Z,15.13
2023-05-14T07:19:42.577Z,15.99
2023-05-14T07:22:10.346Z,15.32
2023-05-14T07:24:43.633Z,15.39
2023-05-14T07:27:11.386Z,15.59
2023-05-14T07:29:39.155Z,15.17
2023-05-14T07:32:06.792Z,15.84
2023-05-14T07:34:34.888Z,15.74
2023-05-14T07:37:03.083Z,15.94
2023-05-14T07:39:30.705Z,15.58
2023-05-14T07:42:02.431Z,16.32
2023-05-14T07:44:30.511Z,16.24
2023-05-14T07:46:58.454Z,16.98
2023-05-14T07:49:26.118Z,18.24
2023-05-14T07:51:53.678Z,18.54
2023-05-14T07:54:21.396Z,17.40
2023-05-14T07:56:48.945Z,17.28
2023-05-14T07:59:25.648Z,16.82
2023-05-14T08:01:53.240Z,16.70
2023-05-14T08:04:20.893Z,17.09
2023-05-14T08:06:49.467Z,16.30
2023-05-14T08:09:17.166Z,17.49
2023-05-14T08:11:44.872Z,17.28
2023-05-14T08:14:12.460Z,17.61
2023-05-14T08:16:41.490Z,18.99
2023-05-14T08:19:09.253Z,19.70
2023-05-14T08:21:37.009Z,19.87
2023-05-14T08:24:05.484Z,19.65
2023-05-14T08:26:33.417Z,19.22
2023-05-14T08:29:01.129Z,18.03
2023-05-14T08:31:30.050Z,18.17
2023-05-14T08:33:59.182Z,18.07
2023-05-14T08:36:26.890Z,18.29
2023-05-14T08:38:56.128Z,17.95
2023-05-14T08:41:24.079Z,18.82
2023-05-14T08:44:00.559Z,18.80
2023-05-14T08:46:30.744Z,19.16
2023-05-14T08:49:08.672Z,19.61
2023-05-14T08:51:36.886Z,20.04
2023-05-14T08:54:05.880Z,19.15
2023-05-14T08:56:33.757Z,18.36
2023-05-14T08:59:01.462Z,18.70
2023-05-14T09:01:29.710Z,18.93
2023-05-14T09:04:02.717Z,19.23
2023-05-14T09:06:31.183Z,18.85
2023-05-14T09:08:58.874Z,18.46
2023-05-14T09:11:26.808Z,18.84
2023-05-14T09:13:55.600Z,19.28
2023-05-14T09:16:27.801Z,19.41
2023-05-14T09:18:55.461Z,19.43
2023-05-14T09:21:27.963Z,19.16
2023-05-14T09:23:57.535Z,20.59
2023-05-14T09:26:26.324Z,20.55
2023-05-14T09:28:54.713Z,20.96
2023-05-14T09:31:23.213Z,20.58
2023-05-14T09:33:51.298Z,19.50
2023-05-14T09:36:19.833Z,19.21
2023-05-14T09:38:50.807Z,18.36
2023-05-14T09:41:18.445Z,18.56
2023-05-14T09:43:46.124Z,17.53
2023-05-14T09:46:14.480Z,18.72
2023-05-14T09:48:42.482Z,19.14
2023-05-14T09:51:10.420Z,19.97
2023-05-14T09:53:38.738Z,19.76
2023-05-14T09:56:08.979Z,19.61
2023-05-14T09:58:36.800Z,19.85
2023-05-14T10:01:09.078Z,19.61
2023-05-14T10:03:37.132Z,19.80
2023-05-14T10:06:06.910Z,19.58
2023-05-14T10:08:38.689Z,18.84
2023-05-14T10:11:13.519Z,18.60
2023-05-14T10:13:46.260Z,18.61
2023-05-14T10:16:19.699Z,18.32
2023-05-14T10:18:53.536Z,17.80
2023-05-14T10:21:23.571Z,17.86
2023-05-14T10:23:52.649Z,17.40
2023-05-14T10:26:24.086Z,17.84
2023-05-14T10:28:51.945Z,18.79
2023-05-14T10:31:23.177Z,19.50
2023-05-14T10:33:50.978Z,19.46
2023-05-14T10:36:18.715Z,19.36
2023-05-14T10:38:47.023Z,18.43
2023-05-14T10:41:16.260Z,18.15
2023-05-14T10:43:45.351Z,18.05
2023-05-14T10:46:14.393Z,17.23
2023-05-14T10:48:43.994Z,16.91
2023-05-14T10:51:12.495Z,17.55
2023-05-14T10:53:43.608Z,18.64
2023-05-14T10:56:13.463Z,18.73
2023-05-14T10:58:44.986Z,19.47
2023-05-14T11:01:13.750Z,20.34
2023-05-14T11:03:43.271Z,19.88
2023-05-14T11:06:12.978Z,20.97
2023-05-14T11:08:41.041Z,20.03
2023-05-14T11:11:09.771Z,19.87
2023-05-14T11:13:37.811Z,20.01
2023-05-14T11:16:22.581Z,19.84
2023-05-14T11:19:01.234Z,18.40
2023-05-14T11:21:29.082Z,18.28
2023-05-14T11:24:00.058Z,19.05
2023-05-14T11:26:27.988Z,19.26
2023-05-14T11:28:55.941Z,19.41
2023-05-14T11:31:27.883Z,19.49
2023-05-14T11:33:55.809Z,20.26
2023-05-14T11:36:23.365Z,20.02
2023-05-14T11:38:51.948Z,19.15
2023-05-14T11:41:19.884Z,18.33
2023-05-14T11:43:48.076Z,18.34
2023-05-14T11:46:18.940Z,18.57
2023-05-14T11:48:48.288Z,17.68
2023-05-14T11:51:16.093Z,17.76
2023-05-14T11:53:46.455Z,18.20
2023-05-14T11:56:15.590Z,17.99
2023-05-14T11:58:48.234Z,18.28
2023-05-14T12:01:15.978Z,17.81
2023-05-14T12:03:43.892Z,18.18
2023-05-14T12:06:14.506Z,18.55
2023-05-14T12:08:47.628Z,18.78
2023-05-14T12:11:15.260Z,18.47
2023-05-14T12:13:42.900Z,18.85
2023-05-14T12:16:15.164Z,19.20
2023-05-14T12:18:43.474Z,19.35
2023-05-14T12:21:11.578Z,19.57
2023-05-14T12:23:45.281Z,20.26
2023-05-14T12:26:14.587Z,19.07
2023-05-14T12:28:42.249Z,18.44
2023-05-14T12:31:11.308Z,19.29
2023-05-14T12:33:39.032Z,19.44
2023-05-14T12:38:37.732Z,17.96
2023-05-14T12:41:07.061Z,16.99
2023-05-14T12:43:34.829Z,16.45
2023-05-14T12:46:02.577Z,16.23
2023-05-14T12:48:31.673Z,16.57
2023-05-14T12:51:00.689Z,16.81
2023-05-14T12:53:28.269Z,17.40
2023-05-14T12:55:55.961Z,17.44
2023-05-14T12:58:24.879Z,18.26
2023-05-14T13:00:52.803Z,18.67
2023-05-14T13:03:20.786Z,19.56
2023-05-14T13:05:48.802Z,20.41
2023-05-14T13:08:16.446Z,22.01
2023-05-14T13:10:44.303Z,21.82
2023-05-14T13:13:12.172Z,22.01
2023-05-14T13:15:42.368Z,22.59
2023-05-14T13:18:10.363Z,21.55
2023-05-14T13:20:41.277Z,21.75
2023-05-14T13:23:11.955Z,22.73
2023-05-14T13:25:39.773Z,22.53
2023-05-14T13:28:07.885Z,23.00
2023-05-14T13:30:36.589Z,21.40
2023-05-14T13:33:07.016Z,20.75
2023-05-14T13:35:34.782Z,20.17
2023-05-14T13:38:02.456Z,20.64
2023-05-14T13:40:30.086Z,20.38
2023-05-14T13:43:01.489Z,19.68
2023-05-14T13:45:29.066Z,19.27
2023-05-14T13:47:56.948Z,18.68
2023-05-14T13:50:26.249Z,18.21
2023-05-14T13:52:54.098Z,18.34
2023-05-14T13:55:21.814Z,19.11
2023-05-14T13:57:50.215Z,18.57
2023-05-14T14:00:18.680Z,18.42
2023-05-14T14:02:46.383Z,18.66
2023-05-14T14:05:14.224Z,18.61
2023-05-14T14:07:43.230Z,18.85
2023-05-14T14:10:11.050Z,18.68
2023-05-14T14:12:38.827Z,19.00
2023-05-14T14:15:07.854Z,18.50
2023-05-14T14:17:35.490Z,17.95
2023-05-14T14:20:03.363Z,18.66
2023-05-14T14:22:31.725Z,19.16
2023-05-14T14:25:03.712Z,19.56
2023-05-14T14:27:33.785Z,20.03
2023-05-14T14:30:01.882Z,19.87
2023-05-14T14:32:29.482Z,19.68
2023-05-14T14:34:57.173Z,20.03
2023-05-14T14:37:24.858Z,20.10
2023-05-14T14:39:52.466Z,19.63
2023-05-14T14:42:21.571Z,18.63
2023-05-14T14:44:50.261Z,19.23
2023-05-14T14:47:17.946Z,19.29
2023-05-14T14:49:45.897Z,19.87
2023-05-14T14:52:13.569Z,20.22
2023-05-14T14:54:41.639Z,19.97
2023-05-14T14:57:09.231Z,20.69
2023-05-14T14:59:38.242Z,19.56
2023-05-14T15:02:06.069Z,19.49
2023-05-14T15:04:33.987Z,20.13
2023-05-14T15:07:02.180Z,20.02
2023-05-14T15:09:30.072Z,20.99
2023-05-14T15:11:57.870Z,21.17
2023-05-14T15:14:25.529Z,20.35
2023-05-14T15:16:54.772Z,19.60
2023-05-14T15:19:22.672Z,20.81
2023-05-14T15:21:50.367Z,20.63
2023-05-14T15:24:17.935Z,20.26
2023-05-14T15:26:45.616Z,20.47
2023-05-14T15:29:13.238Z,20.61
2023-05-14T15:31:40.860Z,20.55
2023-05-14T15:34:09.974Z,20.08
2023-05-14T15:36:37.643Z,19.85
2023-05-14T15:39:05.216Z,20.33
2023-05-14T15:41:32.989Z,20.90
2023-05-14T15:44:00.626Z,20.65
2023-05-14T15:46:28.217Z,20.15
2023-05-14T15:48:56.018Z,19.63
2023-05-14T15:51:25.064Z,19.94
2023-05-14T15:53:55.571Z,20.07
2023-05-14T15:56:23.235Z,20.36
2023-05-14T15:58:50.948Z,20.17
2023-05-14T16:01:18.704Z,19.50
2023-05-14T16:03:46.782Z,19.25
2023-05-14T16:06:15.038Z,18.84
2023-05-14T16:08:44.437Z,18.74
2023-05-14T16:11:12.087Z,18.41
2023-05-14T16:13:40.695Z,18.66
2023-05-14T16:16:08.617Z,19.00
2023-05-14T16:18:37.318Z,19.49
2023-05-14T16:21:04.982Z,19.77
2023-05-14T16:23:32.550Z,19.31
2023-05-14T16:26:01.534Z,18.51
2023-05-14T16:28:29.224Z,19.23
2023-05-14T16:31:03.474Z,18.70
2023-05-14T16:33:31.512Z,18.92
2023-05-14T16:35:59.178Z,18.95
2023-05-14T16:38:26.879Z,18.49
2023-05-14T16:40:54.461Z,17.94
2023-05-14T16:43:25.824Z,17.15
2023-05-14T16:45:54.661Z,17.40
2023-05-14T16:48:22.265Z,17.02
2023-05-14T16:50:50.042Z,17.33
2023-05-14T16:53:17.622Z,16.60
2023-05-14T16:55:45.287Z,15.94
2023-05-14T16:58:13.049Z,16.08
2023-05-14T17:00:42.077Z,16.36
2023-05-14T17:03:09.693Z,16.05
2023-05-14T17:05:37.878Z,16.38
2023-05-14T17:08:06.696Z,15.61
2023-05-14T17:10:34.651Z,15.51
2023-05-14T17:13:02.954Z,15.56
2023-05-14T17:15:30.704Z,15.05
2023-05-14T17:17:59.729Z,15.22
2023-05-14T17:20:28.178Z,15.30
2023-05-14T17:22:55.838Z,15.44
2023-05-14T17:25:23.592Z,15.53
2023-05-14T17:27:51.710Z,15.63
2023-05-14T17:30:19.537Z,15.75
2023-05-14T17:32:49.059Z,15.90
2023-05-14T17:35:19.806Z,15.82
2023-05-14T17:37:47.398Z,16.10
2023-05-14T17:40:15.100Z,15.66
2023-05-14T17:42:42.656Z,15.71
2023-05-14T17:45:11.116Z,15.50
2023-05-14T17:47:39.212Z,15.48
2023-05-14T17:50:08.796Z,15.32
2023-05-14T17:52:37.785Z,15.23
2023-05-14T17:55:05.846Z,15.41
2023-05-14T17:57:35.029Z,15.26
2023-05-14T18:00:02.910Z,15.30
2023-05-14T18:02:30.818Z,15.38
2023-05-14T18:04:58.730Z,15.37
2023-05-14T18:07:26.570Z,15.24
2023-05-14T18:09:57.982Z,15.37
2023-05-14T18:12:25.679Z,15.33
2023-05-14T18:14:53.588Z,15.37
2023-05-14T18:17:21.428Z,15.20
2023-05-14T18:19:49.110Z,15.44
2023-05-14T18:22:16.791Z,15.52
2023-05-14T18:24:45.109Z,15.58
2023-05-14T18:27:14.448Z,15.68
2023-05-14T18:29:42.089Z,15.59
2023-05-14T18:32:09.880Z,15.38
2023-05-14T18:34:47.778Z,15.27
2023-05-14T18:37:15.741Z,15.12
2023-05-14T18:39:43.373Z,15.06
2023-05-14T18:42:11.230Z,14.88
2023-05-14T18:44:40.170Z,14.93
2023-05-14T18:47:07.902Z,14.61
2023-05-14T18:49:35.671Z,14.45
2023-05-14T18:52:03.518Z,14.47
2023-05-14T18:54:31.097Z,14.18
2023-05-14T18:56:59.737Z,14.05
2023-05-14T18:59:27.538Z,13.74
2023-05-14T19:01:56.773Z,13.89
2023-05-14T19:04:25.076Z,13.95
2023-05-14T19:06:52.848Z,13.75
2023-05-14T19:09:24.083Z,13.72
2023-05-14T19:11:54.934Z,13.45
2023-05-14T19:14:22.581Z,13.38
2023-05-14T19:16:50.659Z,13.08
2023-05-14T19:19:20.399Z,12.86
2023-05-14T19:21:48.005Z,12.64
2023-05-14T19:24:17.221Z,12.84
2023-05-14T19:26:44.993Z,12.77
2023-05-14T19:29:12.672Z,12.64
2023-05-14T19:31:40.336Z,12.65
2023-05-14T19:34:07.932Z,12.38
2023-05-14T19:36:36.914Z,12.25
2023-05-14T19:39:04.865Z,12.18
2023-05-14T19:41:32.504Z,12.16
2023-05-14T19:44:00.699Z,12.02
2023-05-14T19:46:28.403Z,11.88
2023-05-14T19:48:56.113Z,11.79
2023-05-14T19:51:23.740Z,11.73
2023-05-14T19:53:52.845Z,11.83
2023-05-14T19:56:20.789Z,11.98
2023-05-14T19:58:48.426Z,12.06
2023-05-14T20:01:16.298Z,12.28
2023-05-14T20:03:44.037Z,12.31
2023-05-14T20:06:12.073Z,12.85
2023-05-14T20:08:40.010Z,12.82
2023-05-14T20:11:09.107Z,13.55
2023-05-14T20:13:37.303Z,14.10
2023-05-14T20:16:05.708Z,14.44
2023-05-14T20:18:33.685Z,14.18
2023-05-14T20:21:01.576Z,14.26
2023-05-14T20:23:29.464Z,14.60
2023-05-14T20:25:57.176Z,14.31
2023-05-14T20:28:26.159Z,14.39
2023-05-14T20:30:54.151Z,14.25
2023-05-14T20:33:21.831Z,14.11
2023-05-14T20:35:49.524Z,14.15
2023-05-14T20:38:17.127Z,14.08
2023-05-14T20:40:44.832Z,14.18
2023-05-14T20:43:12.698Z,14.49
2023-05-14T20:45:42.087Z,14.11
2023-05-14T20:48:09.967Z,14.26
2023-05-14T20:50:40.075Z,14.30
2023-05-14T20:53:07.831Z,14.52
2023-05-14T20:55:35.819Z,14.27
2023-05-14T20:58:03.516Z,14.46
2023-05-14T21:00:31.227Z,14.52
2023-05-14T21:03:00.564Z,14.74
2023-05-14T21:05:28.441Z,15.07
2023-05-14T21:07:56.073Z,14.38
2023-05-14T21:10:31.320Z,14.26
2023-05-14T21:12:58.944Z,14.62
2023-05-14T21:15:27.124Z,15.03
2023-05-14T21:17:55.184Z,15.10
2023-05-14T21:20:25.206Z,14.67
2023-05-14T21:22:54.586Z,15.09
2023-05-14T21:25:22.477Z,15.29
2023-05-14T21:27:50.377Z,15.34
2023-05-14T21:30:18.620Z,15.01
2023-05-14T21:32:46.215Z,14.73
2023-05-14T21:35:14.072Z,15.21
2023-05-14T21:37:43.287Z,15.62
2023-05-14T21:40:11.999Z,15.61
2023-05-14T21:42:41.984Z,14.86
2023-05-14T21:45:10.358Z,14.71
2023-05-14T21:47:38.215Z,15.19
2023-05-14T21:50:06.934Z,15.04
2023-05-14T21:52:34.544Z,14.98
2023-05-14T21:55:04.028Z,15.07
2023-05-14T21:57:34.284Z,15.10
2023-05-14T22:00:02.443Z,15.47
2023-05-14T22:02:30.342Z,14.88
2023-05-14T22:04:57.986Z,14.86
2023-05-14T22:07:26.234Z,14.05
2023-05-14T22:09:53.831Z,13.70
2023-05-14T22:12:22.780Z,13.24
2023-05-14T22:14:52.706Z,13.57
2023-05-14T22:17:20.647Z,14.14
2023-05-14T22:19:48.260Z,13.98
2023-05-14T22:22:17.008Z,13.75
2023-05-14T22:24:45.049Z,14.51
2023-05-14T22:27:12.792Z,14.02
2023-05-14T22:29:42.967Z,13.80
2023-05-14T22:32:10.693Z,13.42
2023-05-14T22:34:38.413Z,13.49
2023-05-14T22:37:06.263Z,13.38
2023-05-14T22:39:34.023Z,13.42
2023-05-14T22:42:03.030Z,13.06
2023-05-14T22:44:30.676Z,12.75
2023-05-14T22:46:59.803Z,12.71
2023-05-14T22:49:27.503Z,12.84
2023-05-14T22:51:55.184Z,13.06
2023-05-14T22:54:23.047Z,13.31
2023-05-14T22:56:51.126Z,13.42
2023-05-14T22:59:20.209Z,13.48
2023-05-14T23:01:49.295Z,13.62
2023-05-14T23:04:18.264Z,14.22
2023-05-14T23:06:46.168Z,14.88
2023-05-14T23:09:14.003Z,14.98
2023-05-14T23:11:41.702Z,15.41
2023-05-14T23:14:09.400Z,14.98
2023-05-14T23:16:37.288Z,15.12
2023-05-14T23:19:05.139Z,15.43
2023-05-14T23:21:34.334Z,15.65
2023-05-14T23:24:02.006Z,15.94
2023-05-14T23:26:29.956Z,15.31
2023-05-14T23:28:57.665Z,15.09
2023-05-14T23:31:25.506Z,14.09
2023-05-14T23:33:53.134Z,13.39
2023-05-14T23:36:20.898Z,13.35
2023-05-14T23:38:50.007Z,13.66
2023-05-14T23:41:17.663Z,13.20
2023-05-14T23:43:45.335Z,12.90
2023-05-14T23:46:13.246Z,13.80
2023-05-14T23:48:41.099Z,13.68
2023-05-14T23:51:08.721Z,13.66
2023-05-14T23:53:36.362Z,13.55
2023-05-14T23:56:06.073Z,13.71
2023-05-14T23:58:33.837Z,13.92
